Time;durP1;ratioP1;P1;durP2;ratioP2;P2;SDS_P1;SDS_P2;PMS_P1;PMS_P2;Temp;Humidity;BMP_temperature;BMP_pressure;BME280_temperature;BME280_humidity;BME280_pressure;Samples;Min_cycle;Max_cycle;Signal;HPM_P1;HPM_P2
2023/12/31 00:04:25;;;;;;;14.80;6.70;;;;;;;4.49;80.81;99718.18;218739;1263;140895;-73
2023/12/31 00:09:28;;;;;;;18.60;5.10;;;;;;;4.40;80.65;99717.84;215956;1264;139572;-73
2023/12/31 00:14:30;;;;;;;15.90;6.20;;;;;;;4.29;80.77;99714.13;215725;1264;140268;-73
2023/12/31 00:19:34;;;;;;;16.80;7.80;;;;;;;4.15;80.75;99710.81;215872;1263;140474;-73
2023/12/31 00:24:36;;;;;;;11.80;5.40;;;;;;;4.00;80.67;99707.46;215728;1264;140679;-73
2023/12/31 00:29:39;;;;;;;12.00;5.70;;;;;;;3.82;80.52;99708.67;215800;1263;140467;-74
2023/12/31 00:34:42;;;;;;;10.80;5.60;;;;;;;3.68;80.62;99709.21;215782;1263;140795;-72
2023/12/31 00:39:48;;;;;;;13.30;5.70;;;;;;;3.52;80.50;99700.81;215984;1267;139583;-73
2023/12/31 00:44:51;;;;;;;19.80;6.60;;;;;;;3.38;80.88;99701.70;215724;1264;140240;-73
2023/12/31 00:49:56;;;;;;;10.40;5.90;;;;;;;3.26;80.87;99705.81;215750;1263;139944;-75
2023/12/31 00:54:58;;;;;;;14.20;7.20;;;;;;;3.04;80.61;99708.02;215680;1266;141113;-72
2023/12/31 01:00:04;;;;;;;12.40;7.50;;;;;;;2.84;80.53;99715.61;215707;1263;140277;-73
2023/12/31 01:05:07;;;;;;;7.60;5.30;;;;;;;2.56;80.30;99722.08;215816;1265;140326;-72
2023/12/31 01:10:10;;;;;;;11.10;6.40;;;;;;;2.30;80.21;99723.08;215847;1267;139849;-73
2023/12/31 01:15:14;;;;;;;11.10;6.20;;;;;;;2.14;80.57;99725.88;215882;1264;140286;-73
2023/12/31 01:20:16;;;;;;;11.40;7.30;;;;;;;2.01;80.59;99729.20;215944;1267;139811;-72
2023/12/31 01:25:19;;;;;;;12.30;6.00;;;;;;;1.84;80.58;99728.95;215762;1264;140347;-72
2023/12/31 01:30:23;;;;;;;11.70;5.40;;;;;;;1.72;81.30;99727.99;215848;1267;140077;-73
2023/12/31 01:35:26;;;;;;;13.20;6.60;;;;;;;1.63;81.63;99729.95;216000;1263;139605;-70
2023/12/31 01:40:28;;;;;;;11.70;6.70;;;;;;;1.58;81.80;99733.43;216432;1263;139711;-73
2023/12/31 01:45:34;;;;;;;10.60;8.10;;;;;;;1.60;82.43;99738.70;217109;1263;140184;-73
2023/12/31 01:50:37;;;;;;;15.20;8.00;;;;;;;1.62;82.77;99744.33;217202;1263;139546;-74
2023/12/31 01:55:40;;;;;;;14.90;7.40;;;;;;;1.63;82.72;99747.58;219077;1263;140486;-74
2023/12/31 02:00:42;;;;;;;10.40;6.70;;;;;;;1.63;82.73;99750.92;218290;1264;140335;-73
2023/12/31 02:05:46;;;;;;;16.30;8.80;;;;;;;1.65;83.19;99740.86;217602;1267;140301;-72
2023/12/31 02:10:49;;;;;;;14.80;7.40;;;;;;;1.65;82.94;99747.94;215765;1264;140501;-71
2023/12/31 02:15:53;;;;;;;12.60;8.00;;;;;;;1.58;82.58;99753.63;217039;1263;141204;-73
2023/12/31 02:20:56;;;;;;;18.30;8.70;;;;;;;1.52;83.06;99751.15;215689;1264;140237;-73
2023/12/31 02:26:07;;;;;;;25.50;9.90;;;;;;;1.41;82.64;99762.30;216025;1264;141068;-73
2023/12/31 02:31:10;;;;;;;16.80;8.90;;;;;;;1.24;82.64;99765.92;215821;1267;139615;-72
2023/12/31 02:36:13;;;;;;;18.30;9.70;;;;;;;1.04;82.18;99762.59;215618;1267;139739;-72
2023/12/31 02:41:16;;;;;;;15.90;10.10;;;;;;;0.85;82.64;99763.33;215678;1267;139755;-70
2023/12/31 02:46:20;;;;;;;28.00;11.90;;;;;;;0.85;83.51;99756.55;215909;1263;140287;-72
2023/12/31 02:51:23;;;;;;;25.50;10.00;;;;;;;0.87;83.68;99756.53;216027;1264;140052;-73
2023/12/31 02:56:27;;;;;;;15.80;12.00;;;;;;;0.83;83.39;99757.23;215738;1263;140132;-72
2023/12/31 03:01:32;;;;;;;13.70;8.30;;;;;;;0.80;83.65;99755.70;215672;1263;140758;-71
2023/12/31 03:06:38;;;;;;;22.30;11.00;;;;;;;0.76;83.77;99750.97;215880;1263;139460;-71
2023/12/31 03:11:41;;;;;;;19.40;10.30;;;;;;;0.69;83.65;99744.92;215681;1267;139907;-73
2023/12/31 03:16:45;;;;;;;23.60;10.80;;;;;;;0.66;84.10;99747.75;215690;1263;139989;-74
2023/12/31 03:21:49;;;;;;;14.80;9.70;;;;;;;0.57;83.64;99758.63;216474;1267;141122;-72
2023/12/31 03:26:53;;;;;;;21.30;10.20;;;;;;;0.48;84.11;99769.93;215677;1266;139793;-71
2023/12/31 03:31:57;;;;;;;20.30;10.20;;;;;;;0.46;84.73;99772.33;215769;1266;140149;-71
2023/12/31 03:37:00;;;;;;;17.40;9.70;;;;;;;0.54;85.43;99770.14;215775;1263;139717;-69
2023/12/31 03:42:06;;;;;;;17.90;10.30;;;;;;;0.68;85.96;99773.45;216004;1263;140090;-72
2023/12/31 03:47:09;;;;;;;23.00;11.10;;;;;;;0.80;86.21;99768.30;215776;1264;141101;-72
2023/12/31 03:52:12;;;;;;;22.80;12.20;;;;;;;0.90;86.24;99765.44;215789;1262;139650;-74
2023/12/31 03:57:15;;;;;;;28.20;13.40;;;;;;;0.92;86.19;99766.55;215907;1263;143274;-70
2023/12/31 04:02:18;;;;;;;24.00;12.20;;;;;;;0.85;85.61;99764.25;215622;1265;139855;-72
2023/12/31 04:07:21;;;;;;;27.40;13.90;;;;;;;0.79;86.37;99762.30;218921;1263;140306;-74
2023/12/31 04:12:25;;;;;;;26.10;14.00;;;;;;;0.82;86.33;99762.20;218500;1263;141030;-74
2023/12/31 04:17:27;;;;;;;23.10;12.00;;;;;;;0.85;86.11;99758.12;215968;1264;139619;-70
2023/12/31 04:22:30;;;;;;;27.30;15.20;;;;;;;0.81;85.84;99749.54;215740;1267;139901;-71
2023/12/31 04:27:38;;;;;;;25.20;12.80;;;;;;;0.79;85.80;99752.20;216069;1263;139730;-71
2023/12/31 04:32:40;;;;;;;23.60;13.50;;;;;;;0.74;85.40;99751.37;215723;1267;140837;-71
2023/12/31 04:37:44;;;;;;;19.90;12.50;;;;;;;0.66;85.93;99751.85;215699;1267;139657;-71
2023/12/31 04:42:47;;;;;;;19.40;11.80;;;;;;;0.59;85.58;99752.52;215728;1266;139478;-71
2023/12/31 04:47:50;;;;;;;25.30;13.20;;;;;;;0.52;85.93;99747.54;215698;1264;141486;-71
2023/12/31 04:52:53;;;;;;;49.50;20.70;;;;;;;0.51;86.37;99750.09;215636;1263;141154;-71
2023/12/31 04:57:58;;;;;;;72.30;22.50;;;;;;;0.53;86.74;99742.32;215614;1263;140821;-72
2023/12/31 05:03:01;;;;;;;41.90;17.00;;;;;;;0.48;86.24;99738.48;215762;1264;139966;-69
2023/12/31 05:08:04;;;;;;;45.00;18.50;;;;;;;0.35;85.50;99734.27;215812;1267;140659;-72
2023/12/31 05:13:10;;;;;;;30.40;14.90;;;;;;;0.28;85.93;99728.80;215709;1263;139607;-72
2023/12/31 05:18:13;;;;;;;24.90;13.40;;;;;;;0.23;86.20;99722.59;215923;1263;141135;-70
2023/12/31 05:23:17;;;;;;;25.30;13.50;;;;;;;0.18;85.99;99718.14;215837;1267;140637;-72
2023/12/31 05:28:19;;;;;;;19.90;11.40;;;;;;;0.12;86.18;99720.45;215812;1264;140658;-72
2023/12/31 05:33:22;;;;;;;26.20;14.70;;;;;;;0.09;86.24;99716.36;215849;1267;139944;-70
2023/12/31 05:38:26;;;;;;;22.40;12.00;;;;;;;0.01;86.16;99715.00;215751;1265;140516;-70
2023/12/31 05:43:29;;;;;;;23.10;13.50;;;;;;;-0.06;86.18;99712.48;215786;1264;140841;-70
2023/12/31 05:48:32;;;;;;;21.70;13.00;;;;;;;-0.09;85.97;99709.66;215862;1264;140190;-70
2023/12/31 05:53:36;;;;;;;31.20;17.20;;;;;;;-0.19;85.80;99706.39;219104;1262;141171;-71
2023/12/31 05:58:42;;;;;;;21.50;15.30;;;;;;;-0.20;86.24;99706.89;218972;1263;141592;-72
2023/12/31 06:03:44;;;;;;;31.50;16.30;;;;;;;-0.22;86.02;99706.42;216946;1264;140905;-70
2023/12/31 06:08:48;;;;;;;34.10;17.30;;;;;;;-0.28;86.10;99712.55;215638;1267;140930;-71
2023/12/31 06:13:51;;;;;;;36.50;19.20;;;;;;;-0.35;86.23;99709.48;215629;1263;141196;-70
2023/12/31 06:18:54;;;;;;;26.00;15.40;;;;;;;-0.37;86.52;99703.41;215717;1267;140713;-70
2023/12/31 06:23:56;;;;;;;25.90;15.60;;;;;;;-0.40;86.53;99701.98;217767;1267;140174;-71
2023/12/31 06:29:02;;;;;;;24.70;16.10;;;;;;;-0.38;86.59;99704.77;215784;1263;141313;-70
2023/12/31 06:34:05;;;;;;;26.70;15.80;;;;;;;-0.37;86.84;99712.00;215670;1264;141337;-71
2023/12/31 06:39:10;;;;;;;37.40;16.40;;;;;;;-0.36;86.86;99711.50;215764;1264;140444;-71
2023/12/31 06:44:13;;;;;;;23.70;16.10;;;;;;;-0.36;86.95;99707.91;215693;1264;140644;-70
2023/12/31 06:49:16;;;;;;;27.80;16.90;;;;;;;-0.32;87.22;99711.14;215889;1264;140857;-68
2023/12/31 06:54:19;;;;;;;26.90;15.70;;;;;;;-0.33;87.02;99713.98;215757;1267;141591;-68
2023/12/31 06:59:22;;;;;;;26.60;16.70;;;;;;;-0.38;87.12;99708.10;217788;1263;140407;-69
2023/12/31 07:04:24;;;;;;;30.90;18.30;;;;;;;-0.37;87.37;99707.80;216032;1267;140649;-71
2023/12/31 07:09:28;;;;;;;29.10;15.20;;;;;;;-0.34;87.26;99703.35;216501;1266;140109;-70
2023/12/31 07:14:30;;;;;;;21.20;12.70;;;;;;;-0.29;87.56;99700.90;216090;1267;139828;-72
2023/12/31 07:19:33;;;;;;;19.50;13.20;;;;;;;-0.30;87.85;99700.09;216059;1265;140550;-72
2023/12/31 07:24:36;;;;;;;25.50;16.70;;;;;;;-0.27;87.99;99695.36;216062;1266;140172;-71
2023/12/31 07:29:40;;;;;;;30.90;16.70;;;;;;;-0.20;88.63;99686.91;216247;1265;140122;-70
2023/12/31 07:34:43;;;;;;;24.30;13.70;;;;;;;-0.12;88.23;99688.97;216327;1263;140021;-70
2023/12/31 07:39:46;;;;;;;49.80;23.40;;;;;;;-0.08;88.36;99689.29;217690;1263;140150;-71
2023/12/31 07:44:48;;;;;;;34.20;20.00;;;;;;;-0.02;88.49;99681.61;217736;1264;140654;-75
2023/12/31 07:49:50;;;;;;;38.90;19.30;;;;;;;0.07;88.68;99678.39;216477;1262;140860;-74
2023/12/31 07:54:53;;;;;;;38.00;20.60;;;;;;;0.17;89.11;99673.95;216158;1264;139710;-74
2023/12/31 07:59:56;;;;;;;39.00;20.40;;;;;;;0.29;89.56;99677.46;216211;1263;139654;-73
2023/12/31 08:04:59;;;;;;;37.90;20.20;;;;;;;0.42;89.92;99669.64;216232;1265;140723;-71
2023/12/31 08:10:03;;;;;;;32.40;17.90;;;;;;;0.54;90.34;99662.09;216375;1267;140572;-70
2023/12/31 08:15:07;;;;;;;26.00;13.80;;;;;;;0.72;90.71;99656.73;216232;1265;139777;-70
2023/12/31 08:20:11;;;;;;;20.00;13.20;;;;;;;0.91;90.94;99653.36;216466;1264;139853;-70
2023/12/31 08:25:13;;;;;;;27.40;16.70;;;;;;;1.07;90.94;99652.55;216075;1265;139712;-70
2023/12/31 08:30:16;;;;;;;20.30;13.60;;;;;;;1.23;91.12;99647.90;216196;1265;141990;-72
2023/12/31 08:35:19;;;;;;;19.90;14.50;;;;;;;1.41;91.15;99642.34;216116;1264;139678;-70
2023/12/31 08:40:21;;;;;;;31.50;17.10;;;;;;;1.59;91.34;99641.24;216014;1264;141894;-69
2023/12/31 08:45:24;;;;;;;32.50;18.30;;;;;;;1.76;91.50;99639.97;217123;1264;140307;-67
2023/12/31 08:50:29;;;;;;;36.50;21.70;;;;;;;1.92;91.55;99647.86;217399;1267;140458;-67
2023/12/31 08:55:32;;;;;;;31.50;21.60;;;;;;;2.05;91.46;99643.35;216425;1267;139990;-68
2023/12/31 09:00:35;;;;;;;32.70;21.60;;;;;;;2.19;91.53;99645.55;216648;1264;142050;-69
2023/12/31 09:05:38;;;;;;;27.30;18.00;;;;;;;2.33;91.58;99640.52;215746;1265;141458;-68
2023/12/31 09:10:42;;;;;;;28.10;18.10;;;;;;;2.49;91.68;99636.16;215941;1263;140167;-67
2023/12/31 09:15:45;;;;;;;23.00;13.80;;;;;;;2.62;91.69;99628.52;217456;1266;140147;-70
2023/12/31 09:20:48;;;;;;;25.70;14.30;;;;;;;2.80;91.78;99619.86;215946;1265;141676;-68
2023/12/31 09:25:53;;;;;;;27.90;17.70;;;;;;;2.95;91.82;99614.23;215884;1265;140226;-68
2023/12/31 09:30:56;;;;;;;25.80;18.50;;;;;;;3.07;91.60;99611.91;216242;1265;140368;-68
2023/12/31 09:35:58;;;;;;;22.40;15.60;;;;;;;3.20;91.41;99597.59;215961;1267;139629;-71
2023/12/31 09:41:05;;;;;;;27.40;17.30;;;;;;;3.30;91.33;99586.58;216061;1265;139963;-67
2023/12/31 09:46:11;;;;;;;25.50;16.00;;;;;;;3.40;91.32;99582.89;216079;1265;139671;-68
2023/12/31 09:51:16;;;;;;;28.50;17.60;;;;;;;3.56;91.46;99584.85;219088;1264;140174;-70
2023/12/31 09:56:22;;;;;;;24.70;15.10;;;;;;;3.75;91.27;99572.66;218069;1264;140367;-70
2023/12/31 10:01:24;;;;;;;26.10;17.60;;;;;;;3.87;90.80;99564.63;215831;1265;140234;-71
2023/12/31 10:06:27;;;;;;;33.30;18.00;;;;;;;3.92;90.55;99566.23;215820;1265;140531;-71
2023/12/31 10:11:31;;;;;;;23.80;17.90;;;;;;;4.03;90.75;99554.26;215831;1267;140850;-71
2023/12/31 10:16:43;;;;;;;27.80;18.50;;;;;;;4.23;90.90;99548.01;217452;1265;140955;-71
2023/12/31 10:21:46;;;;;;;25.70;16.30;;;;;;;4.49;90.99;99538.70;215920;1267;140096;-70
2023/12/31 10:26:48;;;;;;;25.40;15.40;;;;;;;4.64;90.38;99532.70;215665;1265;139629;-71
2023/12/31 10:31:52;;;;;;;25.30;14.80;;;;;;;4.80;90.57;99536.27;215707;1266;423821;-73
2023/12/31 10:37:07;;;;;;;24.90;15.90;;;;;;;5.03;90.39;99537.00;215988;1264;140517;-71
2023/12/31 10:42:09;;;;;;;28.20;17.00;;;;;;;5.21;89.94;99531.73;215949;1265;141428;-70
2023/12/31 10:47:16;;;;;;;27.90;15.40;;;;;;;5.34;90.22;99524.27;215805;1267;139532;-70
2023/12/31 10:52:19;;;;;;;29.40;15.10;;;;;;;5.57;89.83;99525.13;216023;1267;141462;-69
2023/12/31 10:57:23;;;;;;;32.10;18.00;;;;;;;5.76;89.72;99517.67;218058;1267;140414;-70
2023/12/31 11:02:27;;;;;;;28.10;15.90;;;;;;;6.00;89.75;99506.74;217213;1267;140484;-71
2023/12/31 11:07:30;;;;;;;22.50;14.10;;;;;;;6.16;89.06;99497.52;215844;1267;139727;-70
2023/12/31 11:12:34;;;;;;;21.20;12.70;;;;;;;6.32;88.57;99491.80;215871;1264;140874;-71
2023/12/31 11:17:58;;;;;;;28.40;14.30;;;;;;;6.39;88.12;99476.73;215801;1265;141728;-70
2023/12/31 11:23:39;;;;;;;27.40;14.60;;;;;;;6.35;87.29;99471.05;215980;1264;139626;-72
2023/12/31 11:28:49;;;;;;;25.70;15.10;;;;;;;6.34;87.26;99474.11;216235;1265;162725;-73
2023/12/31 11:33:52;;;;;;;26.60;13.70;;;;;;;6.36;87.18;99469.55;216078;1263;139635;-72
2023/12/31 11:39:00;;;;;;;25.20;15.20;;;;;;;6.34;86.89;99462.02;215997;1264;141050;-73
2023/12/31 11:44:03;;;;;;;22.20;12.90;;;;;;;6.28;86.68;99453.28;217341;1267;140333;-75
2023/12/31 11:49:07;;;;;;;20.80;13.30;;;;;;;6.19;86.17;99440.15;215945;1265;139555;-74
2023/12/31 11:54:11;;;;;;;17.40;13.60;;;;;;;6.13;86.03;99435.78;216544;1266;140621;-73
2023/12/31 11:59:15;;;;;;;26.80;15.20;;;;;;;6.15;86.06;99431.86;215715;1264;140794;-72
2023/12/31 12:04:18;;;;;;;25.90;17.70;;;;;;;6.18;86.05;99428.10;215786;1267;141836;-72
2023/12/31 12:09:31;;;;;;;23.70;14.00;;;;;;;6.15;86.41;99427.71;216264;1262;140036;-74
2023/12/31 12:14:34;;;;;;;28.50;16.70;;;;;;;6.16;85.95;99418.50;216232;1267;141046;-75
2023/12/31 12:19:36;;;;;;;28.50;14.80;;;;;;;6.25;86.03;99416.95;215707;1267;141178;-70
2023/12/31 12:24:40;;;;;;;31.70;14.00;;;;;;;6.33;85.69;99409.65;216065;1267;140115;-71
2023/12/31 12:29:43;;;;;;;22.60;13.10;;;;;;;6.35;85.69;99402.91;215750;1264;141772;-71
2023/12/31 12:34:49;;;;;;;19.70;10.80;;;;;;;6.41;85.69;99398.79;215725;1265;140890;-71
2023/12/31 12:39:57;;;;;;;17.40;11.40;;;;;;;6.47;85.51;99395.84;215677;1267;140096;-71
2023/12/31 12:45:00;;;;;;;20.60;13.50;;;;;;;6.45;85.16;99390.11;216068;1265;140768;-71
2023/12/31 12:50:03;;;;;;;24.30;13.30;;;;;;;6.49;84.88;99379.16;215828;1263;140367;-74
2023/12/31 12:55:06;;;;;;;20.90;13.80;;;;;;;6.51;84.98;99373.23;215960;1267;141395;-73
2023/12/31 13:00:10;;;;;;;20.50;13.90;;;;;;;6.44;84.53;99367.39;215888;1267;140415;-72
2023/12/31 13:05:12;;;;;;;24.70;14.00;;;;;;;6.31;84.20;99362.26;217894;1267;139983;-72
2023/12/31 13:10:15;;;;;;;21.70;12.40;;;;;;;6.19;84.01;99351.55;216192;1264;140129;-72
2023/12/31 13:15:17;;;;;;;19.10;12.20;;;;;;;6.18;84.00;99348.55;215965;1267;141596;-72
2023/12/31 13:20:21;;;;;;;25.50;12.90;;;;;;;6.15;84.00;99342.25;215942;1264;140984;-73
2023/12/31 13:25:23;;;;;;;31.40;17.10;;;;;;;6.02;83.82;99335.53;215792;1267;140138;-76
2023/12/31 13:30:26;;;;;;;24.60;16.70;;;;;;;5.91;84.27;99331.89;216000;1265;140204;-75
2023/12/31 13:35:29;;;;;;;24.40;15.60;;;;;;;5.81;83.83;99334.05;217558;1266;140600;-75
2023/12/31 13:40:31;;;;;;;29.60;17.90;;;;;;;5.73;83.97;99328.25;215911;1263;140705;-74
2023/12/31 13:45:34;;;;;;;28.80;18.90;;;;;;;5.60;83.89;99313.88;217663;1263;140199;-69
2023/12/31 13:50:37;;;;;;;26.70;18.60;;;;;;;5.50;83.99;99311.98;216526;1263;140417;-71
2023/12/31 13:55:40;;;;;;;30.80;19.60;;;;;;;5.41;83.82;99302.61;215967;1264;140177;-73
2023/12/31 14:00:50;;;;;;;28.60;17.80;;;;;;;5.29;83.98;99290.41;215825;1267;140315;-72
2023/12/31 14:05:54;;;;;;;36.10;20.70;;;;;;;5.21;84.14;99278.71;215875;1267;140158;-72
2023/12/31 14:10:58;;;;;;;32.30;18.30;;;;;;;5.09;83.83;99267.20;215921;1264;139910;-72
2023/12/31 14:16:01;;;;;;;39.60;21.10;;;;;;;4.94;83.90;99255.62;215900;1262;139867;-70
2023/12/31 14:21:03;;;;;;;40.80;19.90;;;;;;;4.81;84.04;99242.13;215999;1267;141453;-73
2023/12/31 14:26:06;;;;;;;27.90;15.50;;;;;;;4.74;84.53;99230.45;215676;1263;139960;-71
2023/12/31 14:31:09;;;;;;;33.50;16.90;;;;;;;4.65;84.64;99233.48;215785;1267;139488;-71
2023/12/31 14:36:11;;;;;;;29.70;18.30;;;;;;;4.57;84.92;99223.17;215813;1267;140701;-70
2023/12/31 14:41:15;;;;;;;30.50;17.70;;;;;;;4.49;84.71;99212.59;215500;1267;140555;-69
2023/12/31 14:46:22;;;;;;;25.80;15.30;;;;;;;4.38;84.86;99205.84;215500;1267;140716;-70
2023/12/31 14:51:24;;;;;;;21.30;13.60;;;;;;;4.30;84.95;99204.23;216131;1267;140809;-75
2023/12/31 14:56:37;;;;;;;19.60;13.60;;;;;;;4.24;85.32;99195.95;215875;1267;140721;-73
2023/12/31 15:01:39;;;;;;;26.10;15.20;;;;;;;4.20;85.95;99192.74;217212;1265;140168;-77
2023/12/31 15:06:43;;;;;;;25.00;15.40;;;;;;;4.20;86.01;99183.25;216422;1266;139868;-70
2023/12/31 15:11:48;;;;;;;20.00;10.90;;;;;;;4.25;86.40;99189.98;216212;1266;140503;-73
2023/12/31 15:16:52;;;;;;;39.60;17.10;;;;;;;4.31;86.67;99186.33;216157;1267;140477;-74
2023/12/31 15:21:56;;;;;;;50.30;20.70;;;;;;;4.37;86.53;99184.23;217960;1267;141462;-75
2023/12/31 15:26:59;;;;;;;25.50;13.90;;;;;;;4.42;86.81;99181.39;216304;1264;140166;-72
2023/12/31 15:32:01;;;;;;;22.80;12.70;;;;;;;4.45;86.78;99183.25;215985;1265;139865;-71
2023/12/31 15:37:08;;;;;;;25.10;13.50;;;;;;;4.47;86.79;99171.52;216285;1267;140888;-71
2023/12/31 15:42:12;;;;;;;18.70;11.20;;;;;;;4.50;86.78;99165.16;216260;1267;207889;-71
2023/12/31 15:47:16;;;;;;;23.20;12.80;;;;;;;4.54;86.95;99155.45;216389;1267;140320;-72
2023/12/31 15:52:19;;;;;;;22.60;12.60;;;;;;;4.56;86.96;99144.11;216195;1268;141348;-70
2023/12/31 15:57:23;;;;;;;18.90;11.20;;;;;;;4.57;87.10;99130.88;216042;1269;139820;-72
2023/12/31 16:02:26;;;;;;;24.40;14.00;;;;;;;4.61;86.97;99130.34;216199;1267;140617;-70
2023/12/31 16:07:29;;;;;;;18.00;11.80;;;;;;;4.65;86.94;99115.02;215885;1264;141430;-73
2023/12/31 16:12:32;;;;;;;22.30;13.20;;;;;;;4.66;86.88;99121.05;216513;1267;140331;-70
2023/12/31 16:17:38;;;;;;;24.00;13.80;;;;;;;4.67;86.99;99119.14;216016;1264;140405;-73
2023/12/31 16:22:42;;;;;;;24.80;11.60;;;;;;;4.70;86.89;99111.01;216431;1267;139435;-72
2023/12/31 16:27:45;;;;;;;23.70;12.50;;;;;;;4.74;87.43;99100.91;216095;1267;140526;-71
2023/12/31 16:32:48;;;;;;;37.00;16.60;;;;;;;4.78;86.91;99094.71;216605;1266;142770;-70
2023/12/31 16:37:50;;;;;;;22.10;11.10;;;;;;;4.83;87.12;99094.89;216048;1270;140639;-75
2023/12/31 16:42:54;;;;;;;21.50;11.30;;;;;;;4.86;86.85;99090.81;216502;1264;139675;-73
2023/12/31 16:47:56;;;;;;;19.70;10.60;;;;;;;4.88;87.38;99098.18;217273;1266;139796;-72
2023/12/31 16:53:05;;;;;;;15.50;9.40;;;;;;;4.91;87.25;99093.45;216699;1264;140123;-73
2023/12/31 16:58:08;;;;;;;22.10;11.00;;;;;;;4.92;87.21;99089.16;216031;1264;139701;-72
2023/12/31 17:03:11;;;;;;;23.70;11.50;;;;;;;4.94;86.82;99078.88;216171;1266;139744;-72
2023/12/31 17:08:16;;;;;;;19.90;12.90;;;;;;;4.95;86.79;99077.04;216013;1267;140604;-75
2023/12/31 17:13:19;;;;;;;20.60;11.30;;;;;;;4.95;87.00;99074.56;216328;1267;140217;-76
2023/12/31 17:18:22;;;;;;;20.90;9.90;;;;;;;4.94;86.82;99071.31;215941;1267;139488;-71
2023/12/31 17:23:25;;;;;;;20.50;10.10;;;;;;;4.95;87.22;99064.27;216823;1263;139312;-72
2023/12/31 17:28:27;;;;;;;19.20;11.70;;;;;;;4.96;87.21;99056.02;219065;1263;141519;-73
2023/12/31 17:33:30;;;;;;;22.70;12.10;;;;;;;4.99;86.85;99059.01;217904;1264;140511;-73
2023/12/31 17:38:32;;;;;;;19.90;11.20;;;;;;;5.00;86.46;99061.00;215779;1267;139957;-73
2023/12/31 17:43:35;;;;;;;15.70;10.40;;;;;;;4.99;86.53;99061.40;216068;1264;139680;-72
2023/12/31 17:48:37;;;;;;;21.10;12.20;;;;;;;5.00;86.35;99068.23;216263;1267;141126;-75
2023/12/31 17:53:40;;;;;;;27.00;13.60;;;;;;;5.01;86.67;99068.91;216051;1262;139901;-72
2023/12/31 17:58:42;;;;;;;29.10;15.20;;;;;;;4.97;86.81;99056.27;215842;1267;140165;-73
2023/12/31 18:03:45;;;;;;;23.30;12.20;;;;;;;4.92;86.75;99053.81;216000;1263;139681;-72
2023/12/31 18:08:48;;;;;;;24.20;14.10;;;;;;;4.88;86.68;99048.95;215960;1267;141792;-71
2023/12/31 18:13:52;;;;;;;20.80;12.90;;;;;;;4.85;87.18;99047.48;215943;1267;140972;-72
2023/12/31 18:18:56;;;;;;;25.50;15.30;;;;;;;4.82;86.73;99041.40;215745;1264;139862;-72
2023/12/31 18:23:59;;;;;;;21.80;13.40;;;;;;;4.78;87.01;99036.42;215869;1264;140268;-73
2023/12/31 18:29:02;;;;;;;23.40;13.90;;;;;;;4.76;86.78;99041.72;215868;1264;142060;-74
2023/12/31 18:34:05;;;;;;;29.20;16.20;;;;;;;4.77;87.15;99039.88;216245;1264;140031;-73
2023/12/31 18:39:09;;;;;;;24.40;15.70;;;;;;;4.76;86.84;99041.31;216109;1264;140433;-73
2023/12/31 18:44:11;;;;;;;28.10;16.60;;;;;;;4.74;87.08;99036.94;216042;1263;139666;-73
2023/12/31 18:49:14;;;;;;;26.90;16.40;;;;;;;4.71;87.05;99024.94;215849;1267;139791;-73
2023/12/31 18:54:16;;;;;;;31.30;17.70;;;;;;;4.68;86.98;99024.14;215859;1264;139951;-72
2023/12/31 18:59:21;;;;;;;34.50;17.90;;;;;;;4.66;87.08;99019.52;216026;1267;140329;-71
2023/12/31 19:04:24;;;;;;;24.80;15.60;;;;;;;4.62;87.01;99014.88;215825;1264;140594;-72
2023/12/31 19:09:26;;;;;;;29.80;19.00;;;;;;;4.61;86.89;99009.77;216010;1267;140704;-72
2023/12/31 19:14:30;;;;;;;29.80;14.80;;;;;;;4.57;87.02;99005.60;215917;1262;140053;-73
2023/12/31 19:19:34;;;;;;;30.50;19.10;;;;;;;4.56;87.15;99004.51;215857;1266;140237;-72
2023/12/31 19:24:37;;;;;;;25.60;15.70;;;;;;;4.54;87.00;98994.85;219034;1263;141180;-72
2023/12/31 19:29:39;;;;;;;35.10;16.90;;;;;;;4.53;87.46;98991.82;216120;1263;140078;-72
2023/12/31 19:34:41;;;;;;;27.20;16.20;;;;;;;4.52;87.27;98994.02;215829;1267;140389;-73
2023/12/31 19:39:45;;;;;;;26.70;15.10;;;;;;;4.52;87.18;98997.14;215998;1263;139948;-72
2023/12/31 19:44:47;;;;;;;24.50;14.70;;;;;;;4.51;87.22;98991.86;215919;1264;139936;-72
2023/12/31 19:49:50;;;;;;;27.10;14.30;;;;;;;4.47;87.28;98984.30;216777;1263;140275;-71
2023/12/31 19:55:01;;;;;;;26.90;15.30;;;;;;;4.39;87.14;98979.75;215981;1267;141464;-71
2023/12/31 20:00:05;;;;;;;26.90;17.10;;;;;;;4.30;87.24;98971.48;215969;1263;140074;-72
2023/12/31 20:05:08;;;;;;;19.60;15.30;;;;;;;4.25;87.38;98964.11;216439;1264;139964;-72
2023/12/31 20:10:11;;;;;;;24.60;17.50;;;;;;;4.21;87.36;98958.20;215941;1262;139532;-73
2023/12/31 20:15:14;;;;;;;25.20;15.60;;;;;;;4.19;87.47;98948.80;215797;1263;140335;-71
2023/12/31 20:20:17;;;;;;;26.70;16.30;;;;;;;4.15;87.34;98942.73;216436;1264;140233;-74
2023/12/31 20:25:20;;;;;;;22.70;15.00;;;;;;;4.13;87.60;98944.66;215863;1267;140285;-73
2023/12/31 20:30:22;;;;;;;24.20;15.50;;;;;;;4.13;87.68;98945.59;215891;1263;140301;-73
2023/12/31 20:35:25;;;;;;;24.40;15.10;;;;;;;4.15;87.77;98938.15;215955;1263;140325;-73
2023/12/31 20:40:28;;;;;;;28.20;16.50;;;;;;;4.17;87.76;98932.42;215917;1264;139874;-72
2023/12/31 20:45:31;;;;;;;22.30;14.30;;;;;;;4.20;87.89;98932.52;216834;1267;140236;-72
2023/12/31 20:50:34;;;;;;;26.60;14.30;;;;;;;4.23;87.97;98925.13;215907;1267;140066;-73
2023/12/31 20:55:36;;;;;;;25.80;16.70;;;;;;;4.23;87.91;98924.30;215868;1267;139732;-72
2023/12/31 21:00:39;;;;;;;25.90;15.70;;;;;;;4.25;87.95;98924.62;215917;1264;141298;-74
2023/12/31 21:05:43;;;;;;;30.70;16.60;;;;;;;4.25;88.07;98930.17;215714;1264;139605;-73
2023/12/31 21:10:47;;;;;;;26.90;16.00;;;;;;;4.27;88.12;98918.61;215726;1264;139952;-73
2023/12/31 21:15:50;;;;;;;24.90;15.90;;;;;;;4.25;88.05;98920.48;217523;1264;140598;-73
2023/12/31 21:20:53;;;;;;;39.50;17.50;;;;;;;4.28;87.98;98918.98;217881;1263;140885;-74
2023/12/31 21:25:56;;;;;;;22.10;16.50;;;;;;;4.30;87.88;98929.59;215802;1264;141474;-74
2023/12/31 21:30:59;;;;;;;22.20;15.20;;;;;;;4.30;87.90;98931.42;216040;1263;140669;-75
2023/12/31 21:36:01;;;;;;;23.40;15.70;;;;;;;4.29;88.06;98939.14;215764;1263;139675;-72
2023/12/31 21:41:04;;;;;;;30.40;18.10;;;;;;;4.27;88.25;98924.59;215754;1263;139787;-72
2023/12/31 21:46:06;;;;;;;47.80;25.60;;;;;;;4.20;88.17;98905.77;215918;1266;140150;-72
2023/12/31 21:51:13;;;;;;;24.60;17.90;;;;;;;4.14;88.22;98925.73;216115;1263;139548;-74
2023/12/31 21:56:16;;;;;;;26.50;17.80;;;;;;;4.19;88.29;98927.70;215855;1263;139460;-74
2023/12/31 22:01:39;;;;;;;38.60;19.00;;;;;;;4.17;88.09;98920.08;215855;1264;140218;-73
2023/12/31 22:06:43;;;;;;;25.30;17.70;;;;;;;4.17;88.22;98918.66;215923;1267;140170;-72
2023/12/31 22:11:45;;;;;;;31.20;17.20;;;;;;;4.16;88.26;98920.70;216044;1263;140427;-73
2023/12/31 22:16:48;;;;;;;31.40;19.40;;;;;;;4.14;88.03;98911.20;215754;1263;139478;-73
2023/12/31 22:21:51;;;;;;;111.60;43.70;;;;;;;4.08;88.16;98906.41;215994;1267;140031;-74
2023/12/31 22:26:54;;;;;;;179.40;62.50;;;;;;;4.00;88.05;98907.80;216121;1267;140051;-73
2023/12/31 22:31:56;;;;;;;67.20;28.30;;;;;;;3.95;88.19;98917.70;215220;1262;673305;-72
2023/12/31 22:36:59;;;;;;;40.30;20.10;;;;;;;3.93;88.04;98925.39;215887;1267;140224;-73
2023/12/31 22:42:02;;;;;;;30.20;19.20;;;;;;;3.88;87.98;98909.43;216183;1263;139547;-73
2023/12/31 22:47:04;;;;;;;34.30;18.90;;;;;;;3.82;88.32;98910.96;215852;1264;140688;-71
2023/12/31 22:52:08;;;;;;;36.90;20.10;;;;;;;3.78;88.34;98910.77;215939;1264;141131;-75
2023/12/31 22:57:12;;;;;;;35.20;20.50;;;;;;;3.71;88.17;98905.20;216521;1263;140976;-72
2023/12/31 23:02:15;;;;;;;28.90;19.20;;;;;;;3.69;88.45;98906.30;216308;1263;140075;-74